createdAt,value
2023-04-18T00:00:44.163Z,99.93
2023-04-18T00:01:44.186Z,99.93
2023-04-18T00:02:44.289Z,99.82
2023-04-18T00:03:44.276Z,99.93
2023-04-18T00:04:44.158Z,99.93
2023-04-18T00:05:44.070Z,99.93
2023-04-18T00:06:44.109Z,99.99
2023-04-18T00:07:44.044Z,99.99
2023-04-18T00:08:44.090Z,99.99
2023-04-18T00:09:44.089Z,99.99
2023-04-18T00:10:44.018Z,99.99
2023-04-18T00:11:44.017Z,99.99
2023-04-18T00:12:44.086Z,99.99
2023-04-18T00:13:44.012Z,99.99
2023-04-18T00:14:44.017Z,99.99
2023-04-18T00:15:44.148Z,99.99
2023-04-18T00:16:44.006Z,99.99
2023-04-18T00:17:43.999Z,99.99
2023-04-18T00:18:43.971Z,99.99
2023-04-18T00:19:43.968Z,99.99
2023-04-18T00:20:43.950Z,99.99
2023-04-18T00:21:43.909Z,99.99
2023-04-18T00:22:43.919Z,99.98
2023-04-18T00:23:43.904Z,99.99
2023-04-18T00:24:43.884Z,99.99
2023-04-18T00:25:43.880Z,99.99
2023-04-18T00:26:43.856Z,99.98
2023-04-18T00:27:43.861Z,99.99
2023-04-18T00:28:43.881Z,99.99
2023-04-18T00:29:43.987Z,99.99
2023-04-18T00:30:43.851Z,99.99
2023-04-18T00:31:43.821Z,99.99
2023-04-18T00:32:43.882Z,99.99
2023-04-18T00:33:43.832Z,99.99
2023-04-18T00:34:43.789Z,99.98
2023-04-18T00:35:43.751Z,99.98
2023-04-18T00:36:43.752Z,99.98
2023-04-18T00:37:43.790Z,99.99
2023-04-18T00:38:43.727Z,99.99
2023-04-18T00:39:43.718Z,99.98
2023-04-18T00:40:43.757Z,99.87
2023-04-18T00:41:43.723Z,99.98
2023-04-18T00:42:43.749Z,99.98
2023-04-18T00:43:43.675Z,99.72
2023-04-18T00:44:43.683Z,99.72
2023-04-18T00:45:43.677Z,99.52
2023-04-18T00:46:43.669Z,99.41
2023-04-18T00:47:43.681Z,99.52
2023-04-18T00:48:43.652Z,99.21
2023-04-18T00:49:43.625Z,99.41
2023-04-18T00:50:43.647Z,99.52
2023-04-18T00:51:43.586Z,99.41
2023-04-18T00:52:43.616Z,99.41
2023-04-18T00:53:43.619Z,99.41
2023-04-18T00:54:43.577Z,99.31
2023-04-18T00:55:43.593Z,99.21
2023-04-18T00:56:43.554Z,99.00
2023-04-18T00:57:43.557Z,98.90
2023-04-18T00:58:43.515Z,99.00
2023-04-18T00:59:43.522Z,98.90
2023-04-18T01:00:43.507Z,98.79
2023-04-18T01:01:43.556Z,98.90
2023-04-18T01:02:43.578Z,98.79
2023-04-18T01:03:43.926Z,98.79
2023-04-18T01:04:43.565Z,98.79
2023-04-18T01:05:43.502Z,98.90
2023-04-18T01:06:43.468Z,98.90
2023-04-18T01:07:43.423Z,98.79
2023-04-18T01:08:43.416Z,98.90
2023-04-18T01:09:43.421Z,99.00
2023-04-18T01:10:44.356Z,99.00
2023-04-18T01:11:43.407Z,99.00
2023-04-18T01:12:43.392Z,99.10
2023-04-18T01:13:43.391Z,99.00
2023-04-18T01:14:43.364Z,99.10
2023-04-18T01:15:43.490Z,99.10
2023-04-18T01:16:43.357Z,98.90
2023-04-18T01:17:43.375Z,98.79
2023-04-18T01:18:43.348Z,98.90
2023-04-18T01:19:43.292Z,98.90
2023-04-18T01:20:43.343Z,99.00
2023-04-18T01:21:43.333Z,99.15
2023-04-18T01:22:43.296Z,99.10
2023-04-18T01:23:43.295Z,99.21
2023-04-18T01:24:43.271Z,99.35
2023-04-18T01:25:43.250Z,99.35
2023-04-18T01:26:43.238Z,99.46
2023-04-18T01:27:43.247Z,99.46
2023-04-18T01:28:43.238Z,99.46
2023-04-18T01:29:43.197Z,99.56
2023-04-18T01:30:43.218Z,99.46
2023-04-18T01:31:43.268Z,99.56
2023-04-18T01:32:43.224Z,99.56
2023-04-18T01:33:43.198Z,99.56
2023-04-18T01:34:43.145Z,99.46
2023-04-18T01:35:43.160Z,99.25
2023-04-18T01:36:43.125Z,99.35
2023-04-18T01:37:43.116Z,99.35
2023-04-18T01:38:43.145Z,99.35
2023-04-18T01:39:43.126Z,99.56
2023-04-18T01:40:43.076Z,99.66
2023-04-18T01:41:43.082Z,99.46
2023-04-18T01:42:43.133Z,99.25
2023-04-18T01:43:43.092Z,99.25
2023-04-18T01:44:43.084Z,99.25
2023-04-18T01:45:43.052Z,99.25
2023-04-18T01:46:43.060Z,99.35
2023-04-18T01:47:43.082Z,99.35
2023-04-18T01:48:43.033Z,99.46
2023-04-18T01:49:43.052Z,99.35
2023-04-18T01:50:43.012Z,99.46
2023-04-18T01:51:42.988Z,99.35
2023-04-18T01:52:43.025Z,99.25
2023-04-18T01:53:42.963Z,99.25
2023-04-18T01:54:43.004Z,99.35
2023-04-18T01:55:42.988Z,99.25
2023-04-18T01:56:42.961Z,99.15
2023-04-18T01:57:42.922Z,99.15
2023-04-18T01:58:42.975Z,99.05
2023-04-18T01:59:42.925Z,99.05
2023-04-18T02:00:42.914Z,99.15
2023-04-18T02:01:42.905Z,99.05
2023-04-18T02:02:43.090Z,98.94
2023-04-18T02:03:43.214Z,98.84
2023-04-18T02:04:42.858Z,98.84
2023-04-18T02:05:42.859Z,98.84
2023-04-18T02:06:42.827Z,98.94
2023-04-18T02:07:42.808Z,98.84
2023-04-18T02:08:42.810Z,98.94
2023-04-18T02:09:42.804Z,98.94
2023-04-18T02:10:42.834Z,98.84
2023-04-18T02:11:42.784Z,98.94
2023-04-18T02:12:42.780Z,99.05
2023-04-18T02:13:42.802Z,99.05
2023-04-18T02:14:42.745Z,99.05
2023-04-18T02:15:42.774Z,99.05
2023-04-18T02:16:42.799Z,99.15
2023-04-18T02:17:42.834Z,99.05
2023-04-18T02:18:42.749Z,99.05
2023-04-18T02:19:42.677Z,99.15
2023-04-18T02:20:42.687Z,99.25
2023-04-18T02:21:42.692Z,99.15
2023-04-18T02:22:42.679Z,99.15
2023-04-18T02:23:42.698Z,99.15
2023-04-18T02:24:42.649Z,99.15
2023-04-18T02:25:42.631Z,99.25
2023-04-18T02:26:42.641Z,99.15
2023-04-18T02:27:42.650Z,98.94
2023-04-18T02:28:42.592Z,99.05
2023-04-18T02:29:42.591Z,99.15
2023-04-18T02:30:42.614Z,99.05
2023-04-18T02:31:42.635Z,98.94
2023-04-18T02:32:42.620Z,99.15
2023-04-18T02:33:42.590Z,99.15
2023-04-18T02:34:42.544Z,99.25
2023-04-18T02:35:42.549Z,99.15
2023-04-18T02:36:42.509Z,98.94
2023-04-18T02:37:42.519Z,98.94
2023-04-18T02:38:42.505Z,98.79
2023-04-18T02:39:42.536Z,98.69
2023-04-18T02:40:42.494Z,98.58
2023-04-18T02:41:42.497Z,98.58
2023-04-18T02:42:42.459Z,98.58
2023-04-18T02:43:42.448Z,98.49
2023-04-18T02:44:42.419Z,98.38
2023-04-18T02:45:42.454Z,98.38
2023-04-18T02:46:42.458Z,98.28
2023-04-18T02:47:51.658Z,98.28
2023-04-18T02:48:43.433Z,98.28
2023-04-18T02:49:42.400Z,98.38
2023-04-18T02:50:42.368Z,98.49
2023-04-18T02:51:42.386Z,98.49
2023-04-18T02:52:42.390Z,98.28
2023-04-18T02:53:42.342Z,98.28
2023-04-18T02:54:42.351Z,98.07
2023-04-18T02:55:42.338Z,97.76
2023-04-18T02:56:42.308Z,97.76
2023-04-18T02:57:42.312Z,97.86
2023-04-18T02:58:42.310Z,98.07
2023-04-18T02:59:42.288Z,98.07
2023-04-18T03:00:42.260Z,97.97
2023-04-18T03:01:42.311Z,97.76
2023-04-18T03:02:42.315Z,97.86
2023-04-18T03:03:42.226Z,97.97
2023-04-18T03:04:42.286Z,97.97
2023-04-18T03:05:42.269Z,97.72
2023-04-18T03:06:42.216Z,97.66
2023-04-18T03:07:42.202Z,97.55
2023-04-18T03:08:42.235Z,97.55
2023-04-18T03:09:42.166Z,97.66
2023-04-18T03:10:42.148Z,97.66
2023-04-18T03:11:42.163Z,97.66
2023-04-18T03:12:42.169Z,97.66
2023-04-18T03:13:42.129Z,97.45
2023-04-18T03:14:42.142Z,97.55
2023-04-18T03:15:42.151Z,97.45
2023-04-18T03:16:42.118Z,97.55
2023-04-18T03:17:42.186Z,97.55
2023-04-18T03:18:42.080Z,97.45
2023-04-18T03:19:42.087Z,97.34
2023-04-18T03:20:42.101Z,97.34
2023-04-18T03:21:42.069Z,97.34
2023-04-18T03:22:41.976Z,97.25
2023-04-18T03:23:42.063Z,97.34
2023-04-18T03:24:42.017Z,97.14
2023-04-18T03:25:42.048Z,97.25
2023-04-18T03:26:42.006Z,97.34
2023-04-18T03:27:41.933Z,97.14
2023-04-18T03:28:41.924Z,97.14
2023-04-18T03:29:41.917Z,97.14
2023-04-18T03:30:41.937Z,97.34
2023-04-18T03:31:42.054Z,97.14
2023-04-18T03:32:42.200Z,97.14
2023-04-18T03:33:41.904Z,97.14
2023-04-18T03:34:41.923Z,97.25
2023-04-18T03:35:41.858Z,97.14
2023-04-18T03:36:41.850Z,96.94
2023-04-18T03:37:41.891Z,96.94
2023-04-18T03:38:41.875Z,96.99
2023-04-18T03:39:41.804Z,97.04
2023-04-18T03:40:41.796Z,96.83
2023-04-18T03:41:41.805Z,97.04
2023-04-18T03:42:41.776Z,96.73
2023-04-18T03:43:41.795Z,96.83
2023-04-18T03:44:41.812Z,96.83
2023-04-18T03:45:41.784Z,96.83
2023-04-18T03:46:42.047Z,96.94
2023-04-18T03:47:41.889Z,96.94
2023-04-18T03:48:41.777Z,97.04
2023-04-18T03:49:41.736Z,97.14
2023-04-18T03:50:41.761Z,97.14
2023-04-18T03:51:41.728Z,97.34
2023-04-18T03:52:41.726Z,97.34
2023-04-18T03:53:41.704Z,97.34
2023-04-18T03:54:41.724Z,97.34
2023-04-18T03:55:41.648Z,97.34
2023-04-18T03:56:41.647Z,97.34
2023-04-18T03:57:41.629Z,97.45
2023-04-18T03:58:41.631Z,97.45
2023-04-18T03:59:41.625Z,97.55
2023-04-18T04:00:41.630Z,97.34
2023-04-18T04:01:41.646Z,97.34
2023-04-18T04:02:41.686Z,97.34
2023-04-18T04:03:41.737Z,97.34
2023-04-18T04:04:41.596Z,97.66
2023-04-18T04:05:41.536Z,97.91
2023-04-18T04:06:41.566Z,97.86
2023-04-18T04:07:41.523Z,97.97
2023-04-18T04:08:41.512Z,98.01
2023-04-18T04:09:41.515Z,97.91
2023-04-18T04:10:41.488Z,97.86
2023-04-18T04:11:41.492Z,97.91
2023-04-18T04:12:41.559Z,97.91
2023-04-18T04:13:41.516Z,97.91
2023-04-18T04:14:41.477Z,98.11
2023-04-18T04:15:41.430Z,97.91
2023-04-18T04:16:41.544Z,97.91
2023-04-18T04:17:41.470Z,97.91
2023-04-18T04:18:41.430Z,98.11
2023-04-18T04:19:41.399Z,98.11
2023-04-18T04:20:41.382Z,98.11
2023-04-18T04:21:41.400Z,98.11
2023-04-18T04:22:41.400Z,97.91
2023-04-18T04:23:41.362Z,97.81
2023-04-18T04:24:41.518Z,97.81
2023-04-18T04:25:41.398Z,97.81
2023-04-18T04:26:41.402Z,97.81
2023-04-18T04:27:41.497Z,97.50
2023-04-18T04:28:41.328Z,97.50
2023-04-18T04:29:41.283Z,97.50
2023-04-18T04:30:41.384Z,97.29
2023-04-18T04:31:41.297Z,97.50
2023-04-18T04:32:41.310Z,97.50
2023-04-18T04:33:41.355Z,97.60
2023-04-18T04:34:41.401Z,97.71
2023-04-18T04:35:41.517Z,97.71
2023-04-18T04:36:41.381Z,97.71
2023-04-18T04:37:41.274Z,97.71
2023-04-18T04:38:41.327Z,97.60
2023-04-18T04:39:41.205Z,97.71
2023-04-18T04:40:41.275Z,97.81
2023-04-18T04:41:41.191Z,97.81
2023-04-18T04:42:41.252Z,97.71
2023-04-18T04:43:41.253Z,97.71
2023-04-18T04:44:41.268Z,97.60
2023-04-18T04:45:41.255Z,97.60
2023-04-18T04:46:41.183Z,97.81
2023-04-18T04:47:41.195Z,98.01
2023-04-18T04:48:41.256Z,97.50
2023-04-18T04:49:41.152Z,97.50
2023-04-18T04:50:41.122Z,97.50
2023-04-18T04:51:41.094Z,97.50
2023-04-18T04:52:41.102Z,97.50
2023-04-18T04:53:41.085Z,97.71
2023-04-18T04:54:41.079Z,97.91
2023-04-18T04:55:41.042Z,97.91
2023-04-18T04:56:41.056Z,97.50
2023-04-18T04:57:41.073Z,97.60
2023-04-18T04:58:42.434Z,97.50
2023-04-18T04:59:41.018Z,97.60
2023-04-18T05:00:40.977Z,97.29
2023-04-18T05:01:41.002Z,97.14
2023-04-18T05:02:41.223Z,97.08
2023-04-18T05:03:41.119Z,97.19
2023-04-18T05:04:41.029Z,97.19
2023-04-18T05:05:42.195Z,97.39
2023-04-18T05:06:40.910Z,97.25
2023-04-18T05:07:40.939Z,97.19
2023-04-18T05:08:40.939Z,97.08
2023-04-18T05:09:40.958Z,97.14
2023-04-18T05:10:40.899Z,95.67
2023-04-18T05:11:40.839Z,93.01
2023-04-18T05:12:40.904Z,91.06
2023-04-18T05:13:40.815Z,88.35
2023-04-18T05:14:40.837Z,87.04
2023-04-18T05:15:40.881Z,86.27
2023-04-18T05:16:40.868Z,85.25
2023-04-18T05:17:40.880Z,85.49
2023-04-18T05:18:40.875Z,85.84
2023-04-18T05:19:40.796Z,88.33
2023-04-18T05:20:40.792Z,90.57
2023-04-18T05:21:40.747Z,91.09
2023-04-18T05:22:40.751Z,91.50
2023-04-18T05:23:40.806Z,92.22
2023-04-18T05:24:40.763Z,92.37
2023-04-18T05:25:40.693Z,92.63
2023-04-18T05:26:40.738Z,92.43
2023-04-18T05:27:41.031Z,91.11
2023-04-18T05:28:40.706Z,89.89
2023-04-18T05:29:40.729Z,87.07
2023-04-18T05:30:54.040Z,86.38
2023-04-18T05:31:40.722Z,85.04
2023-04-18T05:32:40.793Z,85.86
2023-04-18T05:33:40.625Z,84.49
2023-04-18T05:34:40.669Z,83.77
2023-04-18T05:35:40.688Z,83.91
2023-04-18T05:36:40.943Z,85.43
2023-04-18T05:37:40.583Z,87.57
2023-04-18T05:38:40.586Z,88.43
2023-04-18T05:39:40.601Z,90.01
2023-04-18T05:40:40.598Z,90.99
2023-04-18T05:41:40.545Z,91.60
2023-04-18T05:42:40.660Z,91.71
2023-04-18T05:43:41.768Z,91.30
2023-04-18T05:44:40.579Z,91.30
2023-04-18T05:45:40.547Z,91.81
2023-04-18T05:46:41.401Z,92.02
2023-04-18T05:47:41.018Z,92.16
2023-04-18T05:48:40.492Z,92.43
2023-04-18T05:49:40.460Z,92.33
2023-04-18T05:50:40.485Z,92.08
2023-04-18T05:51:40.521Z,91.56
2023-04-18T05:52:42.118Z,91.11
2023-04-18T05:53:40.527Z,90.64
2023-04-18T05:54:40.552Z,91.15
2023-04-18T05:55:40.562Z,91.15
2023-04-18T05:56:40.459Z,91.15
2023-04-18T05:57:40.431Z,91.40
2023-04-18T05:58:40.442Z,91.81
2023-04-18T05:59:40.456Z,92.37
2023-04-18T06:00:40.753Z,92.63
2023-04-18T06:01:40.337Z,92.12
2023-04-18T06:02:40.521Z,92.22
2023-04-18T06:03:40.499Z,92.37
2023-04-18T06:04:40.504Z,93.19
2023-04-18T06:05:40.703Z,93.30
2023-04-18T06:06:40.310Z,93.19
2023-04-18T06:07:40.400Z,93.30
2023-04-18T06:08:40.301Z,93.30
2023-04-18T06:09:40.306Z,93.15
2023-04-18T06:10:40.277Z,92.74
2023-04-18T06:11:40.293Z,92.63
2023-04-18T06:12:40.574Z,92.74
2023-04-18T06:13:40.303Z,92.43
2023-04-18T06:14:40.285Z,92.53
2023-04-18T06:15:40.314Z,92.22
2023-04-18T06:16:40.298Z,91.91
2023-04-18T06:17:40.594Z,92.33
2023-04-18T06:18:41.109Z,92.43
2023-04-18T06:19:40.171Z,92.43
2023-04-18T06:20:40.328Z,92.74
2023-04-18T06:21:40.198Z,92.94
2023-04-18T06:22:40.193Z,92.84
2023-04-18T06:23:40.135Z,92.94
2023-04-18T06:24:40.187Z,92.90
2023-04-18T06:25:40.088Z,92.43
2023-04-18T06:26:40.097Z,92.49
2023-04-18T06:27:40.084Z,92.49
2023-04-18T06:28:40.112Z,92.18
2023-04-18T06:29:44.322Z,92.08
2023-04-18T06:30:40.025Z,91.62
2023-04-18T06:31:40.169Z,91.62
2023-04-18T06:32:40.101Z,91.52
2023-04-18T06:33:40.963Z,91.62
2023-04-18T06:34:40.056Z,91.11
2023-04-18T06:35:40.009Z,91.00
2023-04-18T06:36:40.982Z,91.21
2023-04-18T06:37:40.944Z,91.06
2023-04-18T06:38:40.019Z,90.80
2023-04-18T06:39:40.288Z,91.00
2023-04-18T06:40:40.038Z,91.00
2023-04-18T06:41:39.957Z,91.00
2023-04-18T06:42:39.974Z,91.00
2023-04-18T06:43:42.564Z,91.00
2023-04-18T06:44:40.983Z,91.11
2023-04-18T06:45:39.964Z,91.11
2023-04-18T06:46:39.944Z,91.31
2023-04-18T06:47:40.240Z,91.11
2023-04-18T06:48:39.851Z,91.21
2023-04-18T06:49:39.870Z,90.96
2023-04-18T06:50:39.860Z,91.00
2023-04-18T06:51:39.957Z,90.80
2023-04-18T06:52:39.858Z,91.06
2023-04-18T06:53:39.898Z,90.96
2023-04-18T06:54:40.208Z,90.55
2023-04-18T06:55:41.698Z,90.66
2023-04-18T06:56:40.064Z,90.34
2023-04-18T06:57:39.777Z,90.55
2023-04-18T06:58:39.747Z,90.34
2023-04-18T06:59:39.756Z,90.14
2023-04-18T07:00:39.817Z,89.94
2023-04-18T07:01:39.866Z,89.73
2023-04-18T07:02:39.981Z,89.73
2023-04-18T07:03:39.815Z,89.62
2023-04-18T07:04:39.906Z,89.83
2023-04-18T07:05:39.696Z,89.52
2023-04-18T07:06:39.928Z,89.38
2023-04-18T07:07:39.742Z,89.17
2023-04-18T07:08:40.107Z,88.72
2023-04-18T07:09:39.747Z,88.17
2023-04-18T07:10:39.705Z,87.55
2023-04-18T07:11:39.676Z,87.20
2023-04-18T07:12:39.782Z,87.10
2023-04-18T07:13:39.632Z,86.99
2023-04-18T07:14:39.657Z,86.89
2023-04-18T07:15:39.626Z,86.58
2023-04-18T07:16:39.804Z,87.13
2023-04-18T07:17:39.813Z,87.34
2023-04-18T07:18:39.668Z,87.40
2023-04-18T07:19:39.568Z,87.45
2023-04-18T07:20:39.571Z,87.51
2023-04-18T07:21:39.555Z,87.30
2023-04-18T07:22:39.614Z,87.40
2023-04-18T07:23:39.655Z,87.05
2023-04-18T07:24:39.728Z,86.75
2023-04-18T07:25:39.674Z,86.75
2023-04-18T07:26:39.867Z,86.95
2023-04-18T07:27:39.555Z,86.75
2023-04-18T07:28:39.508Z,86.68
2023-04-18T07:29:39.826Z,87.16
2023-04-18T07:30:39.613Z,86.95
2023-04-18T07:31:39.474Z,86.60
2023-04-18T07:32:39.555Z,85.68
2023-04-18T07:33:39.781Z,85.58
2023-04-18T07:34:39.509Z,85.78
2023-04-18T07:35:39.763Z,85.74
2023-04-18T07:36:39.767Z,85.33
2023-04-18T07:37:39.374Z,84.92
2023-04-18T07:38:40.954Z,85.47
2023-04-18T07:39:40.632Z,85.78
2023-04-18T07:40:39.438Z,86.19
2023-04-18T07:41:39.619Z,85.78
2023-04-18T07:42:39.855Z,85.78
2023-04-18T07:43:39.618Z,85.78
2023-04-18T07:44:39.575Z,85.99
2023-04-18T07:45:41.646Z,85.99
2023-04-18T07:46:41.068Z,85.95
2023-04-18T07:47:39.321Z,85.64
2023-04-18T07:48:39.641Z,85.74
2023-04-18T07:49:39.302Z,85.64
2023-04-18T07:50:39.715Z,85.54
2023-04-18T07:51:42.020Z,85.33
2023-04-18T07:52:39.753Z,85.33
2023-04-18T07:53:39.401Z,85.44
2023-04-18T07:54:39.277Z,85.54
2023-04-18T07:55:39.271Z,85.54
2023-04-18T07:56:39.262Z,86.09
2023-04-18T07:57:39.222Z,86.40
2023-04-18T07:58:41.586Z,86.46
2023-04-18T07:59:39.344Z,86.40
2023-04-18T08:00:45.298Z,86.40
2023-04-18T08:01:39.340Z,86.19
2023-04-18T08:02:39.501Z,86.60
2023-04-18T08:03:39.333Z,86.81
2023-04-18T08:04:39.456Z,86.81
2023-04-18T08:05:39.298Z,86.98
2023-04-18T08:06:39.395Z,86.66
2023-04-18T08:07:39.121Z,86.46
2023-04-18T08:08:39.045Z,86.77
2023-04-18T08:09:39.111Z,86.87
2023-04-18T08:10:39.228Z,86.46
2023-04-18T08:11:39.342Z,86.15
2023-04-18T08:12:39.081Z,86.05
2023-04-18T08:13:39.033Z,86.25
2023-04-18T08:14:39.092Z,86.15
2023-04-18T08:15:39.150Z,86.11
2023-04-18T08:16:38.971Z,86.15
2023-04-18T08:17:40.870Z,86.15
2023-04-18T08:18:39.216Z,86.36
2023-04-18T08:19:38.983Z,86.25
2023-04-18T08:20:40.045Z,86.46
2023-04-18T08:21:39.108Z,86.46
2023-04-18T08:22:49.952Z,86.46
2023-04-18T08:23:40.087Z,86.36
2023-04-18T08:24:40.158Z,86.25
2023-04-18T08:25:39.445Z,86.01
2023-04-18T08:26:39.079Z,85.91
2023-04-18T08:27:39.004Z,86.01
2023-04-18T08:28:39.055Z,85.74
2023-04-18T08:29:38.873Z,86.36
2023-04-18T08:30:39.597Z,86.25
2023-04-18T08:31:39.001Z,86.57
2023-04-18T08:32:39.325Z,86.46
2023-04-18T08:33:38.931Z,86.52
2023-04-18T08:34:38.848Z,86.42
2023-04-18T08:35:39.147Z,86.36
2023-04-18T08:36:39.073Z,86.32
2023-04-18T08:37:39.050Z,86.01
2023-04-18T08:38:38.874Z,86.01
2023-04-18T08:39:38.787Z,85.80
2023-04-18T08:40:38.965Z,85.80
2023-04-18T08:41:38.962Z,85.80
2023-04-18T08:42:38.828Z,85.50
2023-04-18T08:43:38.900Z,85.91
2023-04-18T08:44:38.846Z,85.60
2023-04-18T08:45:39.732Z,86.05
2023-04-18T08:46:39.193Z,86.25
2023-04-18T08:47:38.899Z,85.85
2023-04-18T08:48:38.824Z,86.25
2023-04-18T08:49:38.873Z,86.46
2023-04-18T08:50:38.836Z,86.66
2023-04-18T08:51:38.994Z,86.46
2023-04-18T08:52:38.721Z,86.57
2023-04-18T08:53:38.712Z,86.66
2023-04-18T08:54:38.709Z,86.46
2023-04-18T08:55:38.816Z,86.42
2023-04-18T08:56:38.940Z,86.42
2023-04-18T08:57:38.721Z,86.32
2023-04-18T08:58:38.650Z,86.11
2023-04-18T08:59:38.685Z,85.66
2023-04-18T09:00:38.651Z,85.56
2023-04-18T09:01:39.002Z,84.80
2023-04-18T09:02:39.135Z,84.95
2023-04-18T09:03:38.615Z,84.80
2023-04-18T09:04:38.543Z,84.91
2023-04-18T09:05:38.757Z,84.56
2023-04-18T09:06:38.867Z,83.60
2023-04-18T09:07:38.665Z,83.25
2023-04-18T09:08:38.524Z,81.41
2023-04-18T09:09:38.452Z,81.38
2023-04-18T09:10:38.527Z,81.17
2023-04-18T09:11:38.385Z,80.87
2023-04-18T09:12:38.343Z,80.66
2023-04-18T09:13:38.964Z,80.66
2023-04-18T09:14:38.340Z,80.87
2023-04-18T09:15:38.365Z,81.27
2023-04-18T09:16:38.556Z,80.62
2023-04-18T09:17:38.402Z,79.91
2023-04-18T09:18:38.675Z,79.87
2023-04-18T09:19:38.644Z,79.66
2023-04-18T09:20:38.585Z,79.66
2023-04-18T09:21:38.596Z,79.77
2023-04-18T09:22:39.929Z,79.57
2023-04-18T09:23:38.533Z,79.22
2023-04-18T09:24:38.305Z,78.71
2023-04-18T09:25:40.737Z,78.61
2023-04-18T09:26:38.269Z,79.05
2023-04-18T09:27:38.247Z,79.36
2023-04-18T09:28:38.237Z,79.77
2023-04-18T09:29:38.209Z,79.57
2023-04-18T09:30:38.455Z,79.25
2023-04-18T09:31:38.361Z,79.16
2023-04-18T09:32:38.856Z,79.22
2023-04-18T09:33:38.294Z,78.95
2023-04-18T09:34:38.136Z,79.46
2023-04-18T09:35:38.198Z,79.57
2023-04-18T09:36:38.594Z,79.57
2023-04-18T09:37:38.265Z,79.77
2023-04-18T09:38:38.158Z,80.11
2023-04-18T09:39:38.221Z,80.07
2023-04-18T09:40:38.186Z,79.43
2023-04-18T09:41:38.577Z,79.25
2023-04-18T09:42:38.037Z,79.22
2023-04-18T09:43:38.102Z,78.91
2023-04-18T09:44:38.015Z,78.71
2023-04-18T09:45:38.045Z,79.12
2023-04-18T09:46:38.041Z,78.81
2023-04-18T09:47:38.028Z,78.71
2023-04-18T09:48:38.054Z,78.91
2023-04-18T09:49:37.953Z,79.52
2023-04-18T09:50:37.980Z,79.02
2023-04-18T09:51:37.922Z,78.81
2023-04-18T09:52:37.899Z,79.43
2023-04-18T09:53:38.699Z,78.88
2023-04-18T09:54:37.905Z,78.88
2023-04-18T09:55:37.883Z,78.64
2023-04-18T09:56:37.858Z,78.02
2023-04-18T09:57:37.892Z,77.92
2023-04-18T09:58:37.919Z,77.07
2023-04-18T09:59:37.848Z,77.51
2023-04-18T10:00:37.830Z,77.51
2023-04-18T10:01:37.847Z,77.41
2023-04-18T10:02:37.878Z,77.51
2023-04-18T10:03:37.920Z,77.72
2023-04-18T10:04:37.915Z,78.06
2023-04-18T10:05:38.175Z,78.47
2023-04-18T10:06:37.748Z,79.22
2023-04-18T10:07:37.737Z,79.52
2023-04-18T10:08:37.730Z,80.07
2023-04-18T10:09:37.728Z,80.38
2023-04-18T10:10:39.189Z,80.14
2023-04-18T10:11:37.758Z,79.69
2023-04-18T10:12:37.768Z,79.25
2023-04-18T10:13:37.683Z,78.64
2023-04-18T10:14:37.730Z,77.92
2023-04-18T10:15:44.087Z,78.53
2023-04-18T10:16:38.106Z,78.77
2023-04-18T10:17:37.721Z,78.88
2023-04-18T10:18:37.691Z,78.98
2023-04-18T10:19:37.614Z,79.08
2023-04-18T10:20:37.593Z,78.94
2023-04-18T10:21:37.620Z,78.33
2023-04-18T10:22:37.604Z,78.33
2023-04-18T10:23:37.656Z,78.57
2023-04-18T10:24:37.882Z,78.77
2023-04-18T10:25:37.551Z,78.77
2023-04-18T10:26:37.530Z,78.53
2023-04-18T10:27:38.518Z,78.33
2023-04-18T10:28:39.448Z,78.19
2023-04-18T10:29:37.519Z,77.82
2023-04-18T10:30:37.558Z,78.09
2023-04-18T10:31:37.503Z,78.02
2023-04-18T10:32:37.505Z,78.23
2023-04-18T10:33:42.010Z,78.23
2023-04-18T10:34:38.216Z,78.30
2023-04-18T10:35:38.747Z,78.09
2023-04-18T10:36:37.813Z,78.30
2023-04-18T10:37:37.776Z,77.89
2023-04-18T10:38:37.757Z,77.58
2023-04-18T10:39:37.677Z,77.68
2023-04-18T10:40:37.716Z,77.78
2023-04-18T10:41:37.354Z,77.68
2023-04-18T10:42:37.645Z,77.34
2023-04-18T10:43:37.350Z,77.17
2023-04-18T10:44:37.318Z,77.75
2023-04-18T10:45:37.677Z,77.34
2023-04-18T10:46:37.510Z,77.30
2023-04-18T10:47:37.825Z,76.93
2023-04-18T10:48:38.530Z,76.69
2023-04-18T10:49:37.253Z,76.69
2023-04-18T10:50:37.321Z,76.18
2023-04-18T10:51:37.327Z,76.93
2023-04-18T10:52:37.279Z,77.48
2023-04-18T10:53:37.312Z,77.89
2023-04-18T10:54:37.378Z,77.68
2023-04-18T10:55:37.327Z,77.85
2023-04-18T10:56:37.567Z,77.89
2023-04-18T10:57:37.245Z,77.68
2023-04-18T10:58:37.337Z,77.64
2023-04-18T10:59:37.180Z,77.75
2023-04-18T11:00:37.202Z,77.24
2023-04-18T11:01:38.793Z,77.03
2023-04-18T11:02:37.385Z,76.90
2023-04-18T11:03:37.253Z,76.90
2023-04-18T11:04:37.504Z,77.00
2023-04-18T11:05:37.319Z,76.79
2023-04-18T11:06:37.166Z,76.90
2023-04-18T11:07:37.340Z,76.59
2023-04-18T11:08:37.313Z,76.65
2023-04-18T11:09:37.367Z,76.04
2023-04-18T11:10:37.745Z,75.33
2023-04-18T11:11:38.023Z,76.18
2023-04-18T11:12:37.241Z,76.45
2023-04-18T11:13:37.181Z,76.15
2023-04-18T11:14:37.313Z,76.04
2023-04-18T11:15:37.612Z,75.74
2023-04-18T11:16:37.154Z,75.88
2023-04-18T11:17:37.194Z,76.39
2023-04-18T11:18:37.262Z,76.59
2023-04-18T11:19:37.053Z,76.79
2023-04-18T11:20:37.421Z,76.45
2023-04-18T11:21:37.146Z,75.74
2023-04-18T11:22:36.974Z,75.95
2023-04-18T11:23:37.320Z,75.74
2023-04-18T11:24:37.016Z,75.33
2023-04-18T11:25:37.282Z,75.30
2023-04-18T11:26:37.278Z,75.30
2023-04-18T11:27:37.104Z,75.30
2023-04-18T11:28:37.044Z,75.09
2023-04-18T11:29:37.000Z,75.30
2023-04-18T11:30:36.965Z,75.60
2023-04-18T11:31:37.257Z,75.60
2023-04-18T11:32:38.040Z,75.50
2023-04-18T11:33:37.020Z,75.60
2023-04-18T11:34:37.494Z,75.60
2023-04-18T11:35:37.144Z,75.81
2023-04-18T11:36:37.068Z,75.70
2023-04-18T11:37:36.903Z,75.50
2023-04-18T11:38:36.992Z,75.50
2023-04-18T11:39:36.899Z,75.50
2023-04-18T11:40:37.708Z,75.60
2023-04-18T11:41:37.080Z,75.81
2023-04-18T11:42:36.774Z,75.50
2023-04-18T11:43:37.333Z,75.50
2023-04-18T11:44:36.791Z,75.60
2023-04-18T11:45:36.740Z,75.70
2023-04-18T11:46:37.052Z,76.01
2023-04-18T11:47:36.823Z,75.77
2023-04-18T11:48:36.769Z,75.57
2023-04-18T11:49:36.729Z,76.21
2023-04-18T11:50:36.767Z,76.28
2023-04-18T11:51:36.724Z,75.87
2023-04-18T11:52:37.037Z,75.98
2023-04-18T11:53:38.784Z,75.57
2023-04-18T11:54:36.726Z,75.77
2023-04-18T11:55:36.696Z,75.87
2023-04-18T11:56:36.867Z,75.77
2023-04-18T11:57:37.207Z,75.94
2023-04-18T11:58:36.640Z,75.53
2023-04-18T11:59:36.653Z,75.33
2023-04-18T12:00:36.633Z,75.43
2023-04-18T12:01:36.953Z,75.63
2023-04-18T12:02:37.009Z,75.53
2023-04-18T12:03:37.743Z,75.33
2023-04-18T12:04:37.089Z,74.99
2023-04-18T12:05:37.067Z,75.23
2023-04-18T12:06:36.679Z,75.53
2023-04-18T12:07:36.627Z,76.18
2023-04-18T12:08:36.580Z,76.38
2023-04-18T12:09:36.603Z,76.28
2023-04-18T12:10:36.496Z,76.04
2023-04-18T12:11:36.552Z,76.14
2023-04-18T12:12:36.643Z,76.59
2023-04-18T12:13:36.622Z,77.09
2023-04-18T12:14:36.567Z,77.50
2023-04-18T12:15:36.470Z,77.60
2023-04-18T12:16:36.543Z,77.29
2023-04-18T12:17:36.595Z,77.16
2023-04-18T12:18:38.197Z,76.55
2023-04-18T12:19:36.662Z,76.34
2023-04-18T12:20:36.608Z,76.41
2023-04-18T12:21:36.866Z,75.70
2023-04-18T12:22:36.791Z,76.10
2023-04-18T12:23:37.007Z,76.21
2023-04-18T12:24:37.528Z,75.90
2023-04-18T12:25:38.527Z,75.90
2023-04-18T12:26:38.363Z,76.25
2023-04-18T12:27:38.733Z,76.68
2023-04-18T12:28:38.828Z,77.60
2023-04-18T12:29:37.185Z,77.36
2023-04-18T12:30:37.745Z,76.95
2023-04-18T12:31:37.999Z,76.86
2023-04-18T12:32:37.340Z,77.06
2023-04-18T12:33:36.915Z,76.72
2023-04-18T12:34:40.220Z,76.51
2023-04-18T12:35:37.896Z,76.45
2023-04-18T12:36:42.262Z,76.86
2023-04-18T12:37:37.801Z,77.06
2023-04-18T12:38:36.862Z,77.60
2023-04-18T12:39:38.438Z,77.91
2023-04-18T12:40:40.925Z,77.70
2023-04-18T12:41:38.102Z,77.70
2023-04-18T12:42:37.084Z,77.91
2023-04-18T12:43:37.277Z,77.81
2023-04-18T12:44:36.461Z,77.60
2023-04-18T12:45:36.469Z,77.91
2023-04-18T12:46:37.892Z,78.01
2023-04-18T12:47:36.991Z,78.01
2023-04-18T12:48:38.824Z,77.81
2023-04-18T12:49:36.754Z,77.60
2023-04-18T12:50:37.231Z,77.47
2023-04-18T12:51:39.348Z,77.26
2023-04-18T12:52:39.994Z,76.95